sensor_id;sensor_type;location;lat;lon;timestamp;pressure;altitude;pressure_sealevel;temperature;humidity
85094;BME280;75432;49.056;12.004;2024-03-06T00:02:20;96401.75;;;5.28;90.91
85094;BME280;75432;49.056;12.004;2024-03-06T00:04:47;96483.09;;;5.78;90.92
85094;BME280;75432;49.056;12.004;2024-03-06T00:07:13;96369.66;;;4.94;90.88
85094;BME280;75432;49.056;12.004;2024-03-06T00:09:40;96314.06;;;4.62;90.81
85094;BME280;75432;49.056;12.004;2024-03-06T00:12:06;96533.50;;;5.84;91.11
85094;BME280;75432;49.056;12.004;2024-03-06T00:14:33;96544.31;;;5.89;90.84
85094;BME280;75432;49.056;12.004;2024-03-06T00:17:03;96390.03;;;4.93;91.09
85094;BME280;75432;49.056;12.004;2024-03-06T00:19:31;96531.59;;;5.91;91.17
85094;BME280;75432;49.056;12.004;2024-03-06T00:21:59;96567.78;;;6.10;91.20
85094;BME280;75432;49.056;12.004;2024-03-06T00:24:25;96576.81;;;6.09;90.86
85094;BME280;75432;49.056;12.004;2024-03-06T00:26:52;96362.88;;;4.73;90.86
85094;BME280;75432;49.056;12.004;2024-03-06T00:29:19;96533.56;;;5.78;91.08
85094;BME280;75432;49.056;12.004;2024-03-06T00:31:46;96583.31;;;6.13;91.13
85094;BME280;75432;49.056;12.004;2024-03-06T00:34:13;96474.00;;;5.49;91.31
85094;BME280;75432;49.056;12.004;2024-03-06T00:36:41;96297.44;;;4.49;91.19
85094;BME280;75432;49.056;12.004;2024-03-06T00:39:07;96536.88;;;5.98;91.10
85094;BME280;75432;49.056;12.004;2024-03-06T00:41:35;96393.34;;;4.89;91.26
85094;BME280;75432;49.056;12.004;2024-03-06T00:44:02;96600.44;;;6.17;91.35
85094;BME280;75432;49.056;12.004;2024-03-06T00:46:29;96345.84;;;4.62;90.97
85094;BME280;75432;49.056;12.004;2024-03-06T00:48:56;96575.91;;;6.15;91.33
85094;BME280;75432;49.056;12.004;2024-03-06T00:51:23;96601.66;;;6.15;91.41
85094;BME280;75432;49.056;12.004;2024-03-06T00:54:06;96585.53;;;6.16;91.19
85094;BME280;75432;49.056;12.004;2024-03-06T00:56:37;96612.31;;;6.15;91.25
85094;BME280;75432;49.056;12.004;2024-03-06T00:59:04;96600.84;;;6.14;91.25
85094;BME280;75432;49.056;12.004;2024-03-06T01:01:31;96574.72;;;6.11;91.33
85094;BME280;75432;49.056;12.004;2024-03-06T01:03:58;96469.94;;;5.46;91.25
85094;BME280;75432;49.056;12.004;2024-03-06T01:06:24;96559.31;;;5.77;91.43
85094;BME280;75432;49.056;12.004;2024-03-06T01:08:51;96531.28;;;5.81;91.49
85094;BME280;75432;49.056;12.004;2024-03-06T01:11:18;96551.84;;;5.92;91.71
85094;BME280;75432;49.056;12.004;2024-03-06T01:13:44;96567.03;;;6.03;91.59
85094;BME280;75432;49.056;12.004;2024-03-06T01:16:11;96562.19;;;6.00;91.64
85094;BME280;75432;49.056;12.004;2024-03-06T01:18:39;96403.88;;;4.95;91.54
85094;BME280;75432;49.056;12.004;2024-03-06T01:21:06;96361.13;;;4.67;91.42
85094;BME280;75432;49.056;12.004;2024-03-06T01:23:32;96277.75;;;4.13;91.47
85094;BME280;75432;49.056;12.004;2024-03-06T01:25:59;96351.63;;;4.53;91.79
85094;BME280;75432;49.056;12.004;2024-03-06T01:28:26;96236.78;;;3.91;91.52
85094;BME280;75432;49.056;12.004;2024-03-06T01:30:52;96563.06;;;5.94;91.71
85094;BME280;75432;49.056;12.004;2024-03-06T01:33:19;96321.72;;;4.21;91.60
85094;BME280;75432;49.056;12.004;2024-03-06T01:35:45;96455.31;;;5.19;91.73
85094;BME280;75432;49.056;12.004;2024-03-06T01:38:12;96456.69;;;5.21;91.73
85094;BME280;75432;49.056;12.004;2024-03-06T01:40:42;96346.56;;;4.51;91.40
85094;BME280;75432;49.056;12.004;2024-03-06T01:43:18;96585.78;;;5.90;91.67
85094;BME280;75432;49.056;12.004;2024-03-06T01:45:46;96524.44;;;5.49;91.58
85094;BME280;75432;49.056;12.004;2024-03-06T01:48:13;96551.88;;;5.67;91.68
85094;BME280;75432;49.056;12.004;2024-03-06T01:50:41;96539.38;;;5.68;91.61
85094;BME280;75432;49.056;12.004;2024-03-06T01:53:08;96538.78;;;5.66;91.75
85094;BME280;75432;49.056;12.004;2024-03-06T01:55:35;96359.81;;;4.51;91.68
85094;BME280;75432;49.056;12.004;2024-03-06T01:58:03;96340.94;;;4.41;91.78
85094;BME280;75432;49.056;12.004;2024-03-06T02:00:30;96283.56;;;4.04;91.77
85094;BME280;75432;49.056;12.004;2024-03-06T02:02:56;96448.72;;;5.03;91.87
85094;BME280;75432;49.056;12.004;2024-03-06T02:05:23;96419.13;;;4.82;92.04
85094;BME280;75432;49.056;12.004;2024-03-06T02:07:49;96550.69;;;5.63;92.01
85094;BME280;75432;49.056;12.004;2024-03-06T02:10:16;96487.09;;;5.25;92.07
85094;BME280;75432;49.056;12.004;2024-03-06T02:12:43;96304.47;;;4.12;91.80
85094;BME280;75432;49.056;12.004;2024-03-06T02:15:10;96558.34;;;5.71;92.24
85094;BME280;75432;49.056;12.004;2024-03-06T02:17:40;96502.16;;;5.32;92.03
85094;BME280;75432;49.056;12.004;2024-03-06T02:20:07;96405.41;;;4.60;92.02
85094;BME280;75432;49.056;12.004;2024-03-06T02:22:39;96222.56;;;3.61;92.05
85094;BME280;75432;49.056;12.004;2024-03-06T02:25:06;96309.34;;;4.15;92.05
85094;BME280;75432;49.056;12.004;2024-03-06T02:27:33;96273.88;;;3.91;92.19
85094;BME280;75432;49.056;12.004;2024-03-06T02:29:59;96567.34;;;5.70;92.23
85094;BME280;75432;49.056;12.004;2024-03-06T02:32:26;96420.78;;;4.76;92.29
85094;BME280;75432;49.056;12.004;2024-03-06T02:34:52;96560.41;;;5.69;92.41
85094;BME280;75432;49.056;12.004;2024-03-06T02:37:19;96534.03;;;5.50;92.53
85094;BME280;75432;49.056;12.004;2024-03-06T02:39:46;96529.75;;;5.49;92.35
85094;BME280;75432;49.056;12.004;2024-03-06T02:42:12;96243.03;;;3.72;92.46
85094;BME280;75432;49.056;12.004;2024-03-06T02:44:39;96563.13;;;5.63;92.65
85094;BME280;75432;49.056;12.004;2024-03-06T02:47:05;96272.09;;;3.85;92.53
85094;BME280;75432;49.056;12.004;2024-03-06T02:49:32;96536.97;;;5.42;92.97
85094;BME280;75432;49.056;12.004;2024-03-06T02:51:58;96579.91;;;5.57;93.06
85094;BME280;75432;49.056;12.004;2024-03-06T02:54:27;96159.91;;;2.92;92.63
85094;BME280;75432;49.056;12.004;2024-03-06T02:56:54;96468.38;;;4.96;93.10
85094;BME280;75432;49.056;12.004;2024-03-06T02:59:20;96364.00;;;4.09;93.29
85094;BME280;75432;49.056;12.004;2024-03-06T03:01:47;96559.56;;;5.51;93.54
85094;BME280;75432;49.056;12.004;2024-03-06T03:04:14;96510.22;;;5.18;93.49
85094;BME280;75432;49.056;12.004;2024-03-06T03:06:41;96341.13;;;4.15;93.46
85094;BME280;75432;49.056;12.004;2024-03-06T03:09:07;96459.84;;;4.87;93.64
85094;BME280;75432;49.056;12.004;2024-03-06T03:11:38;96548.34;;;5.49;93.58
85094;BME280;75432;49.056;12.004;2024-03-06T03:14:04;96558.94;;;5.49;93.59
85094;BME280;75432;49.056;12.004;2024-03-06T03:16:31;96567.16;;;5.47;93.73
85094;BME280;75432;49.056;12.004;2024-03-06T03:18:58;96567.97;;;5.48;93.63
85094;BME280;75432;49.056;12.004;2024-03-06T03:21:25;96325.72;;;4.05;93.58
85094;BME280;75432;49.056;12.004;2024-03-06T03:23:52;96545.53;;;5.44;93.99
85094;BME280;75432;49.056;12.004;2024-03-06T03:26:18;96500.94;;;5.03;93.68
85094;BME280;75432;49.056;12.004;2024-03-06T03:28:45;96546.56;;;5.43;94.17
85094;BME280;75432;49.056;12.004;2024-03-06T03:31:12;96546.75;;;5.41;94.07
85094;BME280;75432;49.056;12.004;2024-03-06T03:33:39;96551.25;;;5.41;94.04
85094;BME280;75432;49.056;12.004;2024-03-06T03:36:07;96495.88;;;5.01;94.03
85094;BME280;75432;49.056;12.004;2024-03-06T03:38:37;96558.06;;;5.37;93.78
85094;BME280;75432;49.056;12.004;2024-03-06T03:41:10;96541.63;;;5.21;94.00
85094;BME280;75432;49.056;12.004;2024-03-06T03:43:41;96445.56;;;4.63;94.08
85094;BME280;75432;49.056;12.004;2024-03-06T03:46:08;96387.31;;;4.25;94.11
85094;BME280;75432;49.056;12.004;2024-03-06T03:48:35;96481.75;;;4.83;94.45
85094;BME280;75432;49.056;12.004;2024-03-06T03:51:04;96440.34;;;4.50;94.34
85094;BME280;75432;49.056;12.004;2024-03-06T03:53:34;96415.44;;;4.26;94.45
85094;BME280;75432;49.056;12.004;2024-03-06T03:56:01;96561.25;;;5.20;94.28
85094;BME280;75432;49.056;12.004;2024-03-06T03:58:29;96530.19;;;4.96;94.08
85094;BME280;75432;49.056;12.004;2024-03-06T04:00:56;96529.81;;;4.93;94.35
85094;BME280;75432;49.056;12.004;2024-03-06T04:03:23;96562.31;;;5.13;94.51
85094;BME280;75432;49.056;12.004;2024-03-06T04:05:51;96438.72;;;4.18;94.44
85094;BME280;75432;49.056;12.004;2024-03-06T04:08:18;96313.50;;;3.35;94.37
85094;BME280;75432;49.056;12.004;2024-03-06T04:10:45;96574.00;;;5.05;94.60
85094;BME280;75432;49.056;12.004;2024-03-06T04:13:12;96440.72;;;4.22;94.65
85094;BME280;75432;49.056;12.004;2024-03-06T04:15:39;96546.34;;;4.88;94.77
85094;BME280;75432;49.056;12.004;2024-03-06T04:18:06;96580.91;;;5.06;94.94
85094;BME280;75432;49.056;12.004;2024-03-06T04:20:33;96573.38;;;5.03;95.04
85094;BME280;75432;49.056;12.004;2024-03-06T04:22:59;96547.38;;;4.87;94.60
85094;BME280;75432;49.056;12.004;2024-03-06T04:25:26;96447.66;;;4.23;94.71
85094;BME280;75432;49.056;12.004;2024-03-06T04:27:52;96494.13;;;4.57;94.75
85094;BME280;75432;49.056;12.004;2024-03-06T04:30:19;96458.16;;;4.37;94.83
85094;BME280;75432;49.056;12.004;2024-03-06T04:32:45;96123.78;;;2.28;94.77
85094;BME280;75432;49.056;12.004;2024-03-06T04:35:12;96182.38;;;2.70;94.86
85094;BME280;75432;49.056;12.004;2024-03-06T04:37:39;96396.03;;;4.01;94.93
85094;BME280;75432;49.056;12.004;2024-03-06T04:40:06;96429.41;;;4.09;94.95
85094;BME280;75432;49.056;12.004;2024-03-06T04:42:36;96592.66;;;5.23;94.88
85094;BME280;75432;49.056;12.004;2024-03-06T04:45:04;96580.13;;;5.06;94.84
85094;BME280;75432;49.056;12.004;2024-03-06T04:47:31;96597.97;;;5.23;94.84
85094;BME280;75432;49.056;12.004;2024-03-06T04:49:57;96593.53;;;5.17;95.00
85094;BME280;75432;49.056;12.004;2024-03-06T04:52:24;96286.75;;;3.05;94.71
85094;BME280;75432;49.056;12.004;2024-03-06T04:54:51;96494.75;;;4.53;94.66
85094;BME280;75432;49.056;12.004;2024-03-06T04:57:17;96311.72;;;3.22;94.81
85094;BME280;75432;49.056;12.004;2024-03-06T04:59:45;96556.56;;;4.85;95.08
85094;BME280;75432;49.056;12.004;2024-03-06T05:02:11;96548.88;;;4.76;94.99
85094;BME280;75432;49.056;12.004;2024-03-06T05:04:38;96616.78;;;5.15;95.00
85094;BME280;75432;49.056;12.004;2024-03-06T05:07:22;96288.22;;;3.01;94.69
85094;BME280;75432;49.056;12.004;2024-03-06T05:10:07;96622.09;;;5.15;95.08
85094;BME280;75432;49.056;12.004;2024-03-06T05:12:51;96311.31;;;3.19;94.88
85094;BME280;75432;49.056;12.004;2024-03-06T05:15:36;96518.03;;;4.51;95.06
85094;BME280;75432;49.056;12.004;2024-03-06T05:18:20;96649.66;;;5.14;95.16
85094;BME280;75432;49.056;12.004;2024-03-06T05:21:04;96617.59;;;5.16;95.01
85094;BME280;75432;49.056;12.004;2024-03-06T05:23:49;96542.41;;;4.66;95.14
85094;BME280;75432;49.056;12.004;2024-03-06T05:26:33;96287.16;;;3.09;94.86
85094;BME280;75432;49.056;12.004;2024-03-06T05:29:18;96608.44;;;5.12;95.06
85094;BME280;75432;49.056;12.004;2024-03-06T05:32:03;96378.56;;;3.49;94.72
85094;BME280;75432;49.056;12.004;2024-03-06T05:34:56;96622.91;;;5.16;94.90
85094;BME280;75432;49.056;12.004;2024-03-06T05:37:42;96428.22;;;3.98;94.78
85094;BME280;75432;49.056;12.004;2024-03-06T05:40:26;96465.00;;;4.19;94.62
85094;BME280;75432;49.056;12.004;2024-03-06T05:43:10;96619.81;;;5.19;94.92
85094;BME280;75432;49.056;12.004;2024-03-06T05:45:54;96639.22;;;5.19;94.70
85094;BME280;75432;49.056;12.004;2024-03-06T05:48:38;96622.84;;;5.22;94.74
85094;BME280;75432;49.056;12.004;2024-03-06T05:51:22;96629.75;;;5.30;94.56
85094;BME280;75432;49.056;12.004;2024-03-06T05:54:06;96557.81;;;4.82;94.48
85094;BME280;75432;49.056;12.004;2024-03-06T05:56:52;96530.19;;;4.65;94.50
85094;BME280;75432;49.056;12.004;2024-03-06T05:59:37;96677.91;;;5.34;94.13
85094;BME280;75432;49.056;12.004;2024-03-06T06:02:04;96647.31;;;5.31;94.32
85094;BME280;75432;49.056;12.004;2024-03-06T06:04:30;96684.59;;;5.43;94.54
85094;BME280;75432;49.056;12.004;2024-03-06T06:07:06;96668.47;;;5.44;94.35
85094;BME280;75432;49.056;12.004;2024-03-06T06:09:32;96672.66;;;5.27;94.23
85094;BME280;75432;49.056;12.004;2024-03-06T06:11:59;96330.03;;;3.17;94.09
85094;BME280;75432;49.056;12.004;2024-03-06T06:14:26;96432.91;;;3.96;93.94
85094;BME280;75432;49.056;12.004;2024-03-06T06:16:56;96685.97;;;5.52;94.12
85094;BME280;75432;49.056;12.004;2024-03-06T06:19:23;96684.94;;;5.53;93.92
85094;BME280;75432;49.056;12.004;2024-03-06T06:21:51;96464.47;;;4.04;93.99
85094;BME280;75432;49.056;12.004;2024-03-06T06:24:19;96584.69;;;4.92;94.03
85094;BME280;75432;49.056;12.004;2024-03-06T06:26:46;96677.88;;;5.40;94.29
85094;BME280;75432;49.056;12.004;2024-03-06T06:29:12;96706.97;;;5.60;93.87
85094;BME280;75432;49.056;12.004;2024-03-06T06:31:39;96625.88;;;5.01;93.83
85094;BME280;75432;49.056;12.004;2024-03-06T06:34:05;96577.47;;;4.74;93.76
85094;BME280;75432;49.056;12.004;2024-03-06T06:36:32;96646.97;;;5.21;93.95
85094;BME280;75432;49.056;12.004;2024-03-06T06:38:59;96557.19;;;4.49;93.54
85094;BME280;75432;49.056;12.004;2024-03-06T06:41:31;96549.94;;;4.69;93.45
85094;BME280;75432;49.056;12.004;2024-03-06T06:43:57;96412.22;;;3.80;93.23
85094;BME280;75432;49.056;12.004;2024-03-06T06:46:24;96667.66;;;5.44;93.39
85094;BME280;75432;49.056;12.004;2024-03-06T06:48:50;96462.00;;;4.09;93.28
85094;BME280;75432;49.056;12.004;2024-03-06T06:51:17;96630.66;;;5.17;93.23
85094;BME280;75432;49.056;12.004;2024-03-06T06:53:43;96706.47;;;5.69;93.36
85094;BME280;75432;49.056;12.004;2024-03-06T06:56:10;96703.00;;;5.69;93.14
85094;BME280;75432;49.056;12.004;2024-03-06T06:58:37;96668.41;;;5.51;92.97
85094;BME280;75432;49.056;12.004;2024-03-06T07:01:09;96668.41;;;5.51;93.00
85094;BME280;75432;49.056;12.004;2024-03-06T07:03:36;96681.00;;;5.62;93.05
85094;BME280;75432;49.056;12.004;2024-03-06T07:06:03;96690.75;;;5.68;92.71
85094;BME280;75432;49.056;12.004;2024-03-06T07:08:29;96400.13;;;3.97;92.39
85094;BME280;75432;49.056;12.004;2024-03-06T07:10:57;96412.25;;;4.11;92.38
85094;BME280;75432;49.056;12.004;2024-03-06T07:13:24;96543.00;;;4.99;91.99
85094;BME280;75432;49.056;12.004;2024-03-06T07:15:50;96290.66;;;3.47;91.92
85094;BME280;75432;49.056;12.004;2024-03-06T07:18:17;96395.50;;;4.17;91.82
85094;BME280;75432;49.056;12.004;2024-03-06T07:20:43;96678.47;;;5.73;91.85
85094;BME280;75432;49.056;12.004;2024-03-06T07:23:10;96719.72;;;6.26;91.77
85094;BME280;75432;49.056;12.004;2024-03-06T07:25:37;96675.50;;;5.88;91.13
85094;BME280;75432;49.056;12.004;2024-03-06T07:28:03;96267.59;;;3.54;90.83
85094;BME280;75432;49.056;12.004;2024-03-06T07:30:30;96754.69;;;6.29;90.51
85094;BME280;75432;49.056;12.004;2024-03-06T07:32:57;96496.97;;;4.94;90.38
85094;BME280;75432;49.056;12.004;2024-03-06T07:35:24;96505.31;;;4.91;90.04
85094;BME280;75432;49.056;12.004;2024-03-06T07:37:50;96400.78;;;4.24;90.11
85094;BME280;75432;49.056;12.004;2024-03-06T07:40:17;96675.72;;;6.11;90.25
85094;BME280;75432;49.056;12.004;2024-03-06T07:42:43;96775.56;;;6.50;90.16
85094;BME280;75432;49.056;12.004;2024-03-06T07:45:10;96653.91;;;6.03;89.47
85094;BME280;75432;49.056;12.004;2024-03-06T07:47:37;96644.91;;;6.04;89.99
85094;BME280;75432;49.056;12.004;2024-03-06T07:50:05;96460.63;;;4.94;89.65
85094;BME280;75432;49.056;12.004;2024-03-06T07:52:33;96774.50;;;6.76;89.50
85094;BME280;75432;49.056;12.004;2024-03-06T07:54:59;96731.72;;;6.78;89.43
85094;BME280;75432;49.056;12.004;2024-03-06T07:57:26;96749.03;;;6.87;89.11
85094;BME280;75432;49.056;12.004;2024-03-06T07:59:52;96533.00;;;5.51;88.56
85094;BME280;75432;49.056;12.004;2024-03-06T08:02:21;96605.50;;;6.01;88.44
85094;BME280;75432;49.056;12.004;2024-03-06T08:04:48;96612.59;;;6.07;88.48
85094;BME280;75432;49.056;12.004;2024-03-06T08:07:14;96432.47;;;4.93;88.05
85094;BME280;75432;49.056;12.004;2024-03-06T08:09:41;96758.69;;;6.99;88.21
85094;BME280;75432;49.056;12.004;2024-03-06T08:12:09;96696.47;;;6.64;88.03
85094;BME280;75432;49.056;12.004;2024-03-06T08:14:39;96765.66;;;7.00;87.18
85094;BME280;75432;49.056;12.004;2024-03-06T08:17:06;96731.78;;;6.71;87.35
85094;BME280;75432;49.056;12.004;2024-03-06T08:19:33;96479.13;;;5.25;87.28
85094;BME280;75432;49.056;12.004;2024-03-06T08:22:00;96556.22;;;5.80;87.50
85094;BME280;75432;49.056;12.004;2024-03-06T08:24:32;96739.94;;;6.94;87.28
85094;BME280;75432;49.056;12.004;2024-03-06T08:26:58;96670.59;;;6.53;86.82
85094;BME280;75432;49.056;12.004;2024-03-06T08:29:25;96775.34;;;7.13;86.49
85094;BME280;75432;49.056;12.004;2024-03-06T08:31:52;96554.44;;;5.74;86.35
85094;BME280;75432;49.056;12.004;2024-03-06T08:34:19;96720.25;;;6.77;86.34
85094;BME280;75432;49.056;12.004;2024-03-06T08:36:46;96720.53;;;6.69;85.67
85094;BME280;75432;49.056;12.004;2024-03-06T08:39:13;96745.91;;;6.72;85.57
85094;BME280;75432;49.056;12.004;2024-03-06T08:41:41;96797.13;;;7.03;85.86
85094;BME280;75432;49.056;12.004;2024-03-06T08:44:08;96760.00;;;6.72;86.12
85094;BME280;75432;49.056;12.004;2024-03-06T08:46:35;96481.19;;;5.23;86.00
85094;BME280;75432;49.056;12.004;2024-03-06T08:49:01;96783.09;;;7.14;86.08
85094;BME280;75432;49.056;12.004;2024-03-06T08:51:33;96635.50;;;6.26;85.75
85094;BME280;75432;49.056;12.004;2024-03-06T08:54:00;96532.19;;;5.75;85.59
85094;BME280;75432;49.056;12.004;2024-03-06T08:56:28;96466.47;;;5.27;85.43
85094;BME280;75432;49.056;12.004;2024-03-06T08:58:55;96785.75;;;7.33;85.61
85094;BME280;75432;49.056;12.004;2024-03-06T09:01:21;96798.78;;;7.41;85.56
85094;BME280;75432;49.056;12.004;2024-03-06T09:03:48;96668.97;;;6.70;85.06
85094;BME280;75432;49.056;12.004;2024-03-06T09:06:14;96752.53;;;7.35;83.69
85094;BME280;75432;49.056;12.004;2024-03-06T09:08:41;96632.84;;;6.62;84.51
85094;BME280;75432;49.056;12.004;2024-03-06T09:11:07;96545.19;;;6.19;84.15
85094;BME280;75432;49.056;12.004;2024-03-06T09:13:34;96798.31;;;8.03;84.38
85094;BME280;75432;49.056;12.004;2024-03-06T09:16:01;96495.03;;;6.41;83.25
85094;BME280;75432;49.056;12.004;2024-03-06T09:18:27;96673.34;;;7.72;82.93
85094;BME280;75432;49.056;12.004;2024-03-06T09:20:54;96794.06;;;8.67;80.63
85094;BME280;75432;49.056;12.004;2024-03-06T09:23:20;96720.69;;;8.23;80.32
85094;BME280;75432;49.056;12.004;2024-03-06T09:25:47;96527.56;;;7.26;80.34
85094;BME280;75432;49.056;12.004;2024-03-06T09:28:14;96705.03;;;8.27;79.62
85094;BME280;75432;49.056;12.004;2024-03-06T09:30:41;96586.56;;;7.88;78.39
85094;BME280;75432;49.056;12.004;2024-03-06T09:33:08;96685.69;;;8.66;78.91
85094;BME280;75432;49.056;12.004;2024-03-06T09:35:34;96560.38;;;8.08;78.71
85094;BME280;75432;49.056;12.004;2024-03-06T09:38:01;96704.50;;;9.23;77.95
85094;BME280;75432;49.056;12.004;2024-03-06T09:40:28;96560.22;;;8.49;77.98
85094;BME280;75432;49.056;12.004;2024-03-06T09:42:55;96513.75;;;8.34;76.88
85094;BME280;75432;49.056;12.004;2024-03-06T09:45:22;96614.63;;;8.88;75.15
85094;BME280;75432;49.056;12.004;2024-03-06T09:47:49;96618.75;;;8.96;75.64
85094;BME280;75432;49.056;12.004;2024-03-06T09:50:22;96581.91;;;9.38;75.03
85094;BME280;75432;49.056;12.004;2024-03-06T09:52:51;96795.22;;;11.31;75.37
85094;BME280;75432;49.056;12.004;2024-03-06T09:55:19;96701.78;;;12.57;72.07
85094;BME280;75432;49.056;12.004;2024-03-06T09:57:46;96793.66;;;13.90;68.23
85094;BME280;75432;49.056;12.004;2024-03-06T10:00:13;96802.00;;;13.98;67.44
85094;BME280;75432;49.056;12.004;2024-03-06T10:02:51;96791.47;;;13.87;63.84
85094;BME280;75432;49.056;12.004;2024-03-06T10:05:24;96596.28;;;12.61;65.77
85094;BME280;75432;49.056;12.004;2024-03-06T10:07:51;96597.91;;;12.62;65.92
85094;BME280;75432;49.056;12.004;2024-03-06T10:10:20;96796.50;;;14.70;64.59
85094;BME280;75432;49.056;12.004;2024-03-06T10:12:48;96784.81;;;15.41;62.87
85094;BME280;75432;49.056;12.004;2024-03-06T10:15:16;96797.56;;;15.94;60.57
85094;BME280;75432;49.056;12.004;2024-03-06T10:17:42;96585.53;;;14.29;59.82
85094;BME280;75432;49.056;12.004;2024-03-06T10:20:23;96827.69;;;15.37;56.98
85094;BME280;75432;49.056;12.004;2024-03-06T10:22:51;96604.91;;;13.41;60.55
85094;BME280;75432;49.056;12.004;2024-03-06T10:25:24;96580.00;;;12.36;61.43
85094;BME280;75432;49.056;12.004;2024-03-06T10:28:11;96584.84;;;11.97;60.65
85094;BME280;75432;49.056;12.004;2024-03-06T10:30:40;96639.34;;;11.98;63.32
85094;BME280;75432;49.056;12.004;2024-03-06T10:33:11;96813.09;;;12.71;63.79
85094;BME280;75432;49.056;12.004;2024-03-06T10:35:40;96844.38;;;12.55;63.21
85094;BME280;75432;49.056;12.004;2024-03-06T10:38:08;96645.72;;;11.11;63.13
85094;BME280;75432;49.056;12.004;2024-03-06T10:40:37;96812.13;;;11.97;63.72
85094;BME280;75432;49.056;12.004;2024-03-06T10:43:04;96826.53;;;11.90;64.09
85094;BME280;75432;49.056;12.004;2024-03-06T10:45:51;96597.59;;;10.34;62.32
85094;BME280;75432;49.056;12.004;2024-03-06T10:48:18;96710.66;;;11.02;64.18
85094;BME280;75432;49.056;12.004;2024-03-06T10:50:46;96789.97;;;11.41;64.21
85094;BME280;75432;49.056;12.004;2024-03-06T10:53:14;96515.63;;;9.73;63.77
85094;BME280;75432;49.056;12.004;2024-03-06T10:55:49;96607.44;;;10.50;63.66
85094;BME280;75432;49.056;12.004;2024-03-06T10:58:16;96409.94;;;9.44;62.71
85094;BME280;75432;49.056;12.004;2024-03-06T11:00:45;96594.69;;;10.79;62.73
85094;BME280;75432;49.056;12.004;2024-03-06T11:03:15;96580.88;;;10.87;62.39
85094;BME280;75432;49.056;12.004;2024-03-06T11:05:43;96506.31;;;10.31;61.88
85094;BME280;75432;49.056;12.004;2024-03-06T11:08:13;96757.03;;;11.67;61.98
85094;BME280;75432;49.056;12.004;2024-03-06T11:10:41;96597.41;;;10.41;63.14
85094;BME280;75432;49.056;12.004;2024-03-06T11:13:30;96824.94;;;11.51;62.53
85094;BME280;75432;49.056;12.004;2024-03-06T11:15:57;96654.94;;;10.22;64.52
85094;BME280;75432;49.056;12.004;2024-03-06T11:23:31;96831.81;;;10.70;66.14
85094;BME280;75432;49.056;12.004;2024-03-06T11:26:05;96634.38;;;9.44;65.34
85094;BME280;75432;49.056;12.004;2024-03-06T11:28:34;96741.31;;;10.05;65.46
85094;BME280;75432;49.056;12.004;2024-03-06T11:31:06;96584.22;;;8.89;65.33
85094;BME280;75432;49.056;12.004;2024-03-06T11:33:43;96752.19;;;9.99;64.90
85094;BME280;75432;49.056;12.004;2024-03-06T11:36:18;96656.78;;;9.43;65.33
85094;BME280;75432;49.056;12.004;2024-03-06T11:41:20;96681.91;;;9.42;65.84
85094;BME280;75432;49.056;12.004;2024-03-06T11:43:51;96623.88;;;8.97;66.03
85094;BME280;75432;49.056;12.004;2024-03-06T11:46:20;96621.16;;;9.09;66.08
85094;BME280;75432;49.056;12.004;2024-03-06T11:48:54;96725.06;;;9.79;65.60
85094;BME280;75432;49.056;12.004;2024-03-06T11:51:22;96500.13;;;8.47;65.90
85094;BME280;75432;49.056;12.004;2024-03-06T11:53:50;96468.31;;;8.29;65.98
85094;BME280;75432;49.056;12.004;2024-03-06T11:56:18;96584.16;;;9.01;66.05
85094;BME280;75432;49.056;12.004;2024-03-06T11:58:46;96823.84;;;10.42;66.09
85094;BME280;75432;49.056;12.004;2024-03-06T12:01:16;96671.06;;;9.48;66.11
85094;BME280;75432;49.056;12.004;2024-03-06T12:03:43;96825.63;;;10.36;66.11
85094;BME280;75432;49.056;12.004;2024-03-06T12:06:10;96773.31;;;10.00;66.62
85094;BME280;75432;49.056;12.004;2024-03-06T12:08:36;96760.47;;;9.69;65.95
85094;BME280;75432;49.056;12.004;2024-03-06T12:11:04;96687.69;;;9.39;65.77
85094;BME280;75432;49.056;12.004;2024-03-06T12:13:32;96766.88;;;9.56;65.28
85094;BME280;75432;49.056;12.004;2024-03-06T12:15:58;96612.69;;;8.84;65.34
85094;BME280;75432;49.056;12.004;2024-03-06T12:18:30;96701.88;;;9.39;65.36
85094;BME280;75432;49.056;12.004;2024-03-06T12:20:56;96594.22;;;8.82;65.55
85094;BME280;75432;49.056;12.004;2024-03-06T12:23:23;96648.59;;;9.33;65.30
85094;BME280;75432;49.056;12.004;2024-03-06T12:26:08;96708.25;;;9.95;64.17
85094;BME280;75432;49.056;12.004;2024-03-06T12:28:37;96586.56;;;9.31;64.78
85094;BME280;75432;49.056;12.004;2024-03-06T12:31:05;96735.63;;;10.30;64.30
85094;BME280;75432;49.056;12.004;2024-03-06T12:33:34;96819.59;;;11.13;63.26
85094;BME280;75432;49.056;12.004;2024-03-06T12:36:07;96854.59;;;11.06;62.26
85094;BME280;75432;49.056;12.004;2024-03-06T12:38:37;96496.38;;;9.04;63.34
85094;BME280;75432;49.056;12.004;2024-03-06T12:41:05;96588.72;;;9.62;63.26
85094;BME280;75432;49.056;12.004;2024-03-06T12:43:32;96640.09;;;10.14;62.48
85094;BME280;75432;49.056;12.004;2024-03-06T12:46:01;96706.28;;;10.74;61.68
85094;BME280;75432;49.056;12.004;2024-03-06T12:48:31;96752.78;;;12.20;58.95
85094;BME280;75432;49.056;12.004;2024-03-06T12:50:57;96480.31;;;14.06;50.21
85094;BME280;75432;49.056;12.004;2024-03-06T12:53:31;96555.69;;;17.12;43.36
85094;BME280;75432;49.056;12.004;2024-03-06T12:55:59;96660.81;;;19.55;38.92
85094;BME280;75432;49.056;12.004;2024-03-06T12:58:26;96484.06;;;20.18;36.18
85094;BME280;75432;49.056;12.004;2024-03-06T13:00:52;96655.06;;;19.70;38.34
85094;BME280;75432;49.056;12.004;2024-03-06T13:03:20;96567.78;;;20.61;35.96
85094;BME280;75432;49.056;12.004;2024-03-06T13:05:47;96689.38;;;22.09;34.31
85094;BME280;75432;49.056;12.004;2024-03-06T13:08:13;96605.81;;;23.23;32.15
85094;BME280;75432;49.056;12.004;2024-03-06T13:10:41;96670.94;;;25.29;30.51
85094;BME280;75432;49.056;12.004;2024-03-06T13:13:08;96637.72;;;26.19;28.50
85094;BME280;75432;49.056;12.004;2024-03-06T13:15:34;96642.84;;;26.32;28.62